Kingman, Kansas
Current Conditions -  °F | °C
As of 5:52 AM on Monday 24 Nov 2014 (Local Time) from KHUT Reporting Station
Clear Clear  
Wind Chill: 25°   Ceiling: Unl
Heat Index: 34°   Visibility: 10mi
Dew Point: 20°   Wind: 14mph
Humidity: 56%   Direction: 280°W
Pressure: 29.78"   Gusts: NA
Location:  37.65°N, 98.11°W
Report Text: KHUT 241152Z AUTO 28012KT 10SM CLR 01/M07 A2978 RMK AO2 SLP084 70011 T00111067 10050 20006 53013
Loading
Personal Weather Stations






























Interactive Weather Map New forecast layout! Learn more

10-Day Weather Forecast

Advertisements
Track Severe Weather on mobile